Time;durP1;ratioP1;P1;durP2;ratioP2;P2;SDS_P1;SDS_P2;PMS_P1;PMS_P2;Temp;Humidity;BMP_temperature;BMP_pressure;BME280_temperature;BME280_humidity;BME280_pressure;Samples;Min_cycle;Max_cycle;Signal;HPM_P1;HPM_P2
2021/03/07 00:00:18;;;;;;;84.95;51.45;;;52.10;1766.40;;;;;;5035570;28;20033;-63
2021/03/07 00:02:45;;;;;;;85.78;50.58;;;52.00;1792.00;;;;;;5035340;28;20100;-62
2021/03/07 00:05:12;;;;;;;80.30;48.25;;;52.00;1792.00;;;;;;5035418;28;20026;-63
2021/03/07 00:07:38;;;;;;;84.57;48.95;;;52.00;1792.00;;;;;;5035050;28;20021;-64
2021/03/07 00:10:06;;;;;;;87.78;51.70;;;52.10;1766.40;;;;;;5035129;28;20033;-62
2021/03/07 00:12:32;;;;;;;89.10;51.72;;;76.90;1740.80;;;;;;5035553;28;20018;-61
2021/03/07 00:14:58;;;;;;;120.97;66.35;;;76.90;1740.80;;;;;;5035136;28;20021;-61
2021/03/07 00:17:23;;;;;;;82.78;47.17;;;77.00;1740.80;;;;;;5035197;28;20028;-63
2021/03/07 00:19:49;;;;;;;68.32;42.25;;;77.00;1715.20;;;;;;5034933;28;20034;-60
2021/03/07 00:22:15;;;;;;;69.43;39.85;;;77.10;1715.20;;;;;;5035116;28;20380;-62
2021/03/07 00:24:40;;;;;;;65.13;40.55;;;77.20;1689.60;;;;;;5034850;28;20030;-63
2021/03/07 00:27:06;;;;;;;62.65;37.50;;;76.90;1740.80;;;;;;5034936;28;20021;-62
2021/03/07 00:29:32;;;;;;;60.80;37.88;;;76.90;1740.80;;;;;;5016857;28;20065;-62
2021/03/07 00:31:58;;;;;;;69.18;38.65;;;52.10;1740.80;;;;;;5034777;28;20024;-61
2021/03/07 00:34:24;;;;;;;59.47;36.92;;;52.00;1766.40;;;;;;5034913;28;20085;-62
2021/03/07 00:36:50;;;;;;;60.78;36.83;;;52.10;1792.00;;;;;;5034869;28;20109;-63
2021/03/07 00:39:15;;;;;;;70.70;41.10;;;52.00;1817.60;;;;;;5034419;28;20487;-61
2021/03/07 00:41:44;;;;;;;55.03;34.58;;;52.00;1766.40;;;;;;5034914;28;20095;-62
2021/03/07 00:44:11;;;;;;;52.88;30.67;;;76.80;1766.40;;;;;;5034591;28;20033;-60
2021/03/07 00:46:40;;;;;;;52.15;31.45;;;51.90;1792.00;;;;;;5034798;28;20067;-60
2021/03/07 00:49:06;;;;;;;49.42;29.40;;;;;;;;;;5034531;28;20541;-60
2021/03/07 00:51:33;;;;;;;51.78;31.13;;;;;;;;;;5034626;28;20365;-61
2021/03/07 00:53:59;;;;;;;53.45;33.38;;;;;;;;;;5033809;28;20053;-61
2021/03/07 00:56:24;;;;;;;52.92;32.75;;;76.80;1817.60;;;;;;5034188;28;20491;-60
2021/03/07 00:58:50;;;;;;;52.22;32.40;;;52.00;1766.40;;;;;;5034505;28;20018;-60
2021/03/07 01:01:16;;;;;;;56.53;33.47;;;52.10;1740.80;;;;;;5033461;28;20086;-61
2021/03/07 01:03:42;;;;;;;57.53;34.33;;;51.60;1817.60;;;;;;5034357;28;20383;-61
2021/03/07 01:06:08;;;;;;;56.75;35.65;;;51.50;2227.20;;;;;;5034096;28;20028;-61
2021/03/07 01:08:34;;;;;;;55.90;35.08;;;51.40;2227.20;;;;;;5034184;28;20022;-61
2021/03/07 01:11:00;;;;;;;57.90;34.58;;;51.50;1817.60;;;;;;5034233;28;20018;-60
2021/03/07 01:13:26;;;;;;;58.28;35.00;;;51.60;1817.60;;;;;;5034198;28;20029;-60
2021/03/07 01:15:52;;;;;;;61.38;34.97;;;51.80;1766.40;;;;;;5034183;28;20144;-60
2021/03/07 01:18:17;;;;;;;48.83;31.02;;;52.00;1740.80;;;;;;5034146;28;20057;-60
2021/03/07 01:20:44;;;;;;;60.30;34.20;;;51.90;1740.80;;;;;;5034086;28;20468;-61
2021/03/07 01:23:12;;;;;;;59.35;36.40;;;51.80;1766.40;;;;;;5033765;28;20035;-61
2021/03/07 01:25:38;;;;;;;54.45;36.80;;;51.80;1766.40;;;;;;5033904;28;20043;-60
2021/03/07 01:28:05;;;;;;;65.22;36.72;;;51.70;1792.00;;;;;;5033741;28;20388;-60
2021/03/07 01:30:32;;;;;;;69.50;39.42;;;51.90;1792.00;;;;;;5033720;28;20014;-61
2021/03/07 01:32:59;;;;;;;63.75;39.40;;;;;;;;;;5033889;28;20018;-61
2021/03/07 01:35:24;;;;;;;86.45;43.15;;;52.00;1766.40;;;;;;5033879;28;20464;-62
2021/03/07 01:37:51;;;;;;;59.67;35.25;;;51.90;1740.80;;;;;;5033421;28;20017;-61
2021/03/07 01:40:31;;;;;;;84.05;43.40;;;51.90;1740.80;;;;;;5033651;28;20044;-61
2021/03/07 01:42:59;;;;;;;71.47;37.53;;;52.10;1740.80;;;;;;5033565;28;20025;-62
2021/03/07 01:45:27;;;;;;;50.40;31.60;;;51.80;1766.40;;;;;;5033697;28;20026;-61
2021/03/07 01:47:58;;;;;;;53.17;30.30;;;51.90;1740.80;;;;;;5033232;28;20468;-61
2021/03/07 01:50:25;;;;;;;101.88;45.22;;;;;;;;;;5025384;28;20057;-63
2021/03/07 01:52:51;;;;;;;74.85;36.55;;;;;;;;;;5025226;28;20033;-63
2021/03/07 01:55:19;;;;;;;46.17;27.02;;;52.00;2227.20;;;;;;5029419;28;20557;-62
2021/03/07 01:57:47;;;;;;;42.30;27.38;;;51.60;1766.40;;;;;;5033152;28;20387;-62
2021/03/07 02:00:15;;;;;;;48.38;27.85;;;51.30;1792.00;;;;;;5033141;28;20041;-64
2021/03/07 02:02:41;;;;;;;45.42;28.50;;;26.40;1766.40;;;;;;5033171;28;20543;-63
2021/03/07 02:05:13;;;;;;;51.20;30.85;;;51.50;1740.80;;;;;;5033436;28;20033;-60
2021/03/07 02:07:39;;;;;;;;;;;51.70;1715.20;;;;;;5033310;28;20028;-60
2021/03/07 02:10:07;;;;;;;45.67;27.95;;;51.60;1715.20;;;;;;5033024;28;19912;-66
2021/03/07 02:12:34;;;;;;;71.55;35.40;;;51.50;1740.80;;;;;;5032848;28;20458;-60
2021/03/07 02:15:01;;;;;;;153.48;65.25;;;51.40;1740.80;;;;;;5019349;28;20033;-61
2021/03/07 02:17:27;;;;;;;139.98;59.20;;;51.50;1740.80;;;;;;5033027;28;20029;-60
2021/03/07 02:19:53;;;;;;;73.95;38.22;;;51.60;1715.20;;;;;;5032801;28;20044;-61
2021/03/07 02:22:30;;;;;;;56.38;33.30;;;51.80;1689.60;;;;;;5032792;28;20029;-61
2021/03/07 02:24:56;;;;;;;118.18;56.38;;;51.80;1689.60;;;;;;5031190;28;20073;-61
2021/03/07 02:27:22;;;;;;;90.72;46.00;;;51.80;1689.60;;;;;;5033071;28;20052;-61
2021/03/07 02:29:48;;;;;;;65.35;36.67;;;51.80;1689.60;;;;;;5032763;28;20017;-61
2021/03/07 02:32:22;;;;;;;64.53;37.13;;;51.80;1689.60;;;;;;5032455;28;20154;-62
2021/03/07 02:34:53;;;;;;;66.50;36.08;;;51.70;1715.20;;;;;;5032721;28;20061;-61
2021/03/07 02:37:21;;;;;;;62.47;36.15;;;51.80;1715.20;;;;;;5032568;28;20021;-61
2021/03/07 02:39:48;;;;;;;54.65;34.97;;;51.80;1715.20;;;;;;5014302;28;20399;-61
2021/03/07 02:42:27;;;;;;;70.65;40.55;;;52.00;1664.00;;;;;;5032664;28;20447;-61
2021/03/07 02:44:58;;;;;;;69.85;41.92;;;76.80;1638.40;;;;;;5020376;28;20480;-67
2021/03/07 02:47:25;;;;;;;79.43;44.58;;;52.00;1664.00;;;;;;5032297;28;20036;-66
2021/03/07 02:49:56;;;;;;;62.63;37.00;;;51.80;1664.00;;;;;;5032532;28;20029;-61
2021/03/07 02:52:23;;;;;;;57.22;35.28;;;51.80;1689.60;;;;;;5032669;28;20049;-62
2021/03/07 02:54:51;;;;;;;68.05;38.63;;;51.50;1715.20;;;;;;5031867;28;20072;-61
2021/03/07 02:57:19;;;;;;;66.70;39.20;;;51.70;1689.60;;;;;;5032230;28;20098;-67
2021/03/07 02:59:48;;;;;;;72.75;38.45;;;51.80;1664.00;;;;;;5032041;28;20029;-61
2021/03/07 03:02:14;;;;;;;60.22;37.85;;;52.00;1664.00;;;;;;5032450;28;20022;-60
2021/03/07 03:04:42;;;;;;;84.70;45.25;;;52.00;1664.00;;;;;;5032164;28;20025;-62
2021/03/07 03:07:08;;;;;;;93.20;49.55;;;52.10;1664.00;;;;;;5032303;28;20140;-62
2021/03/07 03:09:36;;;;;;;103.30;53.75;;;52.00;1664.00;;;;;;5031739;28;20107;-61
2021/03/07 03:12:04;;;;;;;97.03;54.22;;;52.10;1664.00;;;;;;5032121;28;20471;-60
2021/03/07 03:14:31;;;;;;;97.80;54.28;;;51.80;1689.60;;;;;;5032254;28;20155;-61
2021/03/07 03:17:00;;;;;;;92.93;48.35;;;51.80;1689.60;;;;;;5031819;28;20094;-61
2021/03/07 03:19:28;;;;;;;90.63;48.40;;;52.00;1664.00;;;;;;5032165;28;20064;-61
2021/03/07 03:21:54;;;;;;;87.00;46.55;;;76.90;1638.40;;;;;;5032060;28;20021;-64
2021/03/07 03:24:21;;;;;;;69.57;39.80;;;77.00;1612.80;;;;;;5033430;28;20391;-62
2021/03/07 03:26:46;;;;;;;62.95;33.20;;;77.00;1612.80;;;;;;5035776;28;20025;-67
2021/03/07 03:29:12;;;;;;;56.90;35.15;;;77.10;1587.20;;;;;;5036169;28;20028;-61
2021/03/07 03:31:38;;;;;;;58.17;33.67;;;77.20;1587.20;;;;;;5035723;28;20104;-60
2021/03/07 03:34:05;;;;;;;65.82;38.10;;;77.10;1587.20;;;;;;5018202;28;20084;-60
2021/03/07 03:36:32;;;;;;;72.90;40.03;;;77.10;1587.20;;;;;;5036006;28;20033;-60
2021/03/07 03:39:13;;;;;;;65.80;36.83;;;76.90;1587.20;;;;;;5035645;28;20049;-60
2021/03/07 03:41:39;;;;;;;50.55;29.90;;;52.10;1612.80;;;;;;5034229;28;20017;-61
2021/03/07 03:44:09;;;;;;;46.95;27.63;;;52.10;1587.20;;;;;;5030457;28;20029;-64
2021/03/07 03:46:40;;;;;;;60.72;33.30;;;52.00;1587.20;;;;;;5035806;28;20025;-61
2021/03/07 03:49:35;;;;;;;59.95;34.05;;;52.00;1587.20;;;;;;5035781;28;20084;-62
2021/03/07 03:52:06;;;;;;;47.78;31.67;;;52.10;1587.20;;;;;;5004664;28;20029;-62
2021/03/07 03:54:39;;;;;;;48.15;31.83;;;52.00;1587.20;;;;;;5035109;28;20099;-63
2021/03/07 03:57:07;;;;;;;71.50;41.05;;;52.10;1612.80;;;;;;5035213;28;20480;-65
2021/03/07 03:59:33;;;;;;;70.88;40.85;;;52.00;1612.80;;;;;;5035378;28;20116;-61
2021/03/07 04:02:00;;;;;;;67.28;39.17;;;51.80;1638.40;;;;;;5035344;28;20025;-60
2021/03/07 04:04:28;;;;;;;62.45;36.50;;;51.80;1638.40;;;;;;5035360;28;20029;-65
2021/03/07 04:06:55;;;;;;;66.47;42.85;;;51.60;1638.40;;;;;;5035377;28;20029;-65
2021/03/07 04:09:21;;;;;;;75.90;49.33;;;51.60;1664.00;;;;;;5035042;28;20113;-66
2021/03/07 04:11:48;;;;;;;94.65;57.63;;;51.70;1664.00;;;;;;5035521;28;20053;-63
2021/03/07 04:14:17;;;;;;;84.25;50.55;;;51.80;1894.40;;;;;;5035532;28;20021;-62
2021/03/07 04:16:44;;;;;;;77.75;42.70;;;51.70;1638.40;;;;;;5035195;28;20460;-63
2021/03/07 04:19:09;;;;;;;63.70;39.72;;;51.80;1638.40;;;;;;5034970;28;20044;-60
2021/03/07 04:21:38;;;;;;;62.15;39.83;;;51.60;1638.40;;;;;;5035040;28;20100;-66
2021/03/07 04:24:05;;;;;;;64.00;39.15;;;51.80;1638.40;;;;;;5034681;28;20086;-64
2021/03/07 04:26:31;;;;;;;49.25;35.08;;;51.70;1664.00;;;;;;5034760;28;20444;-61
2021/03/07 04:28:58;;;;;;;55.35;42.22;;;51.80;1612.80;;;;;;5035112;28;20025;-67
2021/03/07 04:31:23;;;;;;;60.63;43.25;;;52.00;1587.20;;;;;;5035017;28;20079;-67
2021/03/07 04:33:49;;;;;;;60.95;48.33;;;51.90;1587.20;;;;;;5034768;28;20414;-66
2021/03/07 04:36:15;;;;;;;68.93;53.72;;;52.10;1561.60;;;;;;5034770;28;20024;-67
2021/03/07 04:38:41;;;;;;;68.22;45.67;;;52.00;1587.20;;;;;;5034506;28;20380;-66
2021/03/07 04:41:07;;;;;;;73.45;46.10;;;52.00;1587.20;;;;;;5016185;28;20033;-63
2021/03/07 04:43:58;;;;;;;81.30;56.80;;;51.90;1587.20;;;;;;5034847;28;20026;-66
2021/03/07 04:46:25;;;;;;;88.30;74.45;;;51.80;1612.80;;;;;;5034397;28;20025;-61
2021/03/07 04:48:53;;;;;;;61.85;44.80;;;51.80;1612.80;;;;;;5034691;28;20053;-65
2021/03/07 04:51:19;;;;;;;64.72;40.83;;;51.80;1612.80;;;;;;5034485;28;20032;-61
2021/03/07 04:53:46;;;;;;;61.55;42.67;;;;;;;;;;5034091;28;20041;-60
2021/03/07 04:56:12;;;;;;;78.70;47.45;;;51.60;1638.40;;;;;;5034295;28;20498;-63
2021/03/07 04:58:37;;;;;;;89.93;51.13;;;51.50;1664.00;;;;;;5034157;28;20033;-62
2021/03/07 05:01:04;;;;;;;77.47;46.15;;;51.70;1638.40;;;;;;5034169;28;20033;-61
2021/03/07 05:03:33;;;;;;;75.68;47.83;;;51.70;1638.40;;;;;;5034759;28;20020;-64
2021/03/07 05:06:00;;;;;;;80.97;49.80;;;51.70;1638.40;;;;;;5016117;28;20037;-63
2021/03/07 05:08:26;;;;;;;72.05;45.70;;;51.70;1638.40;;;;;;5034434;28;20022;-60
2021/03/07 05:10:52;;;;;;;77.75;47.92;;;51.60;1638.40;;;;;;5034345;28;20024;-62
2021/03/07 05:13:18;;;;;;;89.32;56.38;;;51.80;1638.40;;;;;;5016264;28;20443;-59
2021/03/07 05:15:44;;;;;;;87.95;55.90;;;51.60;1638.40;;;;;;5034204;28;20142;-62
2021/03/07 05:18:10;;;;;;;88.05;56.03;;;51.60;1638.40;;;;;;5033750;28;20064;-61
2021/03/07 05:20:35;;;;;;;92.60;58.55;;;51.70;1638.40;;;;;;5034092;28;20025;-65
2021/03/07 05:23:02;;;;;;;77.45;53.17;;;51.80;1638.40;;;;;;5033828;28;20541;-61
2021/03/07 05:25:28;;;;;;;75.75;49.10;;;51.70;1638.40;;;;;;5033713;28;20029;-60
2021/03/07 05:27:54;;;;;;;84.13;54.75;;;51.70;1638.40;;;;;;5033648;28;20033;-60
2021/03/07 05:30:20;;;;;;;105.28;70.10;;;51.60;1638.40;;;;;;5018122;28;20029;-61
2021/03/07 05:32:46;;;;;;;92.60;57.63;;;51.70;1638.40;;;;;;5033892;28;20027;-64
2021/03/07 05:35:12;;;;;;;93.68;61.53;;;51.70;1638.40;;;;;;5016074;28;20025;-59
2021/03/07 05:37:38;;;;;;;104.22;67.65;;;51.70;1638.40;;;;;;5033538;28;20083;-60
2021/03/07 05:40:05;;;;;;;109.03;72.20;;;51.70;1638.40;;;;;;5033590;28;20124;-62
2021/03/07 05:42:33;;;;;;;105.18;75.82;;;51.80;1638.40;;;;;;5033418;28;20495;-61
2021/03/07 05:44:59;;;;;;;104.50;62.42;;;51.80;1638.40;;;;;;5033715;28;20120;-61
2021/03/07 05:47:26;;;;;;;112.22;65.28;;;51.90;1612.80;;;;;;5014664;28;20495;-60
2021/03/07 05:49:51;;;;;;;86.13;51.70;;;52.00;1612.80;;;;;;5033891;28;20444;-63
2021/03/07 05:52:22;;;;;;;85.70;59.67;;;52.10;1612.80;;;;;;5033379;28;20064;-61
2021/03/07 05:54:48;;;;;;;87.85;58.78;;;76.90;1587.20;;;;;;5032787;28;20057;-63
2021/03/07 05:57:15;;;;;;;107.43;73.55;;;76.80;1587.20;;;;;;5033424;28;20037;-61
2021/03/07 05:59:42;;;;;;;98.90;68.07;;;76.90;1587.20;;;;;;5033203;28;20030;-66
2021/03/07 06:02:13;;;;;;;110.97;69.43;;;76.90;1587.20;;;;;;5033539;28;20021;-62
2021/03/07 06:04:40;;;;;;;418.00;195.40;;;76.90;1587.20;;;;;;5033228;28;20037;-65
2021/03/07 06:07:06;;;;;;;128.40;76.20;;;76.90;1587.20;;;;;;5033174;28;20025;-66
2021/03/07 06:09:31;;;;;;;107.03;64.30;;;76.80;1587.20;;;;;;5033069;28;20021;-66
2021/03/07 06:11:59;;;;;;;104.45;66.57;;;76.80;1612.80;;;;;;5033248;28;20499;-64
2021/03/07 06:14:31;;;;;;;109.03;69.40;;;76.80;1612.80;;;;;;5033124;28;20033;-61
2021/03/07 06:16:58;;;;;;;122.72;75.50;;;76.80;1638.40;;;;;;5033342;28;20389;-60
2021/03/07 06:19:25;;;;;;;123.10;75.72;;;76.90;1664.00;;;;;;5033099;28;20048;-61
2021/03/07 06:21:50;;;;;;;138.20;84.15;;;76.90;1664.00;;;;;;5015154;28;20095;-60
2021/03/07 06:24:37;;;;;;;147.00;90.40;;;77.00;1638.40;;;;;;5032689;28;20068;-60
2021/03/07 06:27:11;;;;;;;162.35;102.25;;;77.10;1638.40;;;;;;5032805;28;20044;-61
2021/03/07 06:29:57;;;;;;;181.90;111.43;;;;;;;;;;5032944;28;20471;-65
2021/03/07 06:32:25;;;;;;;170.07;112.25;;;;;;;;;;5032525;28;20021;-61
2021/03/07 06:34:51;;;;;;;169.52;108.40;;;;;;;;;;5032893;28;20025;-64
2021/03/07 06:37:17;;;;;;;163.82;105.43;;;;;;;;;;5032490;28;20017;-66
2021/03/07 06:39:43;;;;;;;201.85;125.05;;;;;;;;;;5032492;28;20041;-60
2021/03/07 06:42:11;;;;;;;176.60;110.10;;;;;;;;;;5014872;28;20491;-66
2021/03/07 06:44:37;;;;;;;177.05;110.00;;;;;;;;;;5032343;28;20080;-61
2021/03/07 06:47:13;;;;;;;166.52;104.60;;;102.70;1536.00;;;;;;5032596;28;20029;-65
2021/03/07 06:49:39;;;;;;;168.40;110.45;;;102.60;1536.00;;;;;;5032584;28;20044;-63
2021/03/07 06:52:14;;;;;;;162.98;105.60;;;102.50;1561.60;;;;;;5032331;28;20021;-63
2021/03/07 06:54:41;;;;;;;165.85;105.72;;;102.50;1536.00;;;;;;5031830;28;20044;-65
2021/03/07 06:57:07;;;;;;;158.40;99.95;;;102.60;1561.60;;;;;;5032338;28;20025;-61
2021/03/07 06:59:34;;;;;;;156.68;99.53;;;102.70;1536.00;;;;;;5031132;28;20048;-61
2021/03/07 07:02:00;;;;;;;157.57;99.80;;;102.60;1561.60;;;;;;5032530;28;20096;-67
2021/03/07 07:04:39;;;;;;;152.25;97.95;;;102.70;1561.60;;;;;;5032190;28;20133;-66
2021/03/07 07:07:07;;;;;;;154.45;95.25;;;;;;;;;;5032222;28;20522;-64
2021/03/07 07:09:33;;;;;;;156.57;99.45;;;103.30;1484.80;;;;;;5032186;28;20029;-66
2021/03/07 07:12:00;;;;;;;136.30;84.75;;;103.30;2227.20;;;;;;5032306;28;20021;-65
2021/03/07 07:14:40;;;;;;;144.88;92.53;;;103.20;1459.20;;;;;;5032250;28;20620;-62
2021/03/07 07:17:11;;;;;;;205.98;118.38;;;103.30;1484.80;;;;;;5032355;28;20033;-66
2021/03/07 07:19:41;;;;;;;136.98;86.85;;;128.20;1510.40;;;;;;5032429;28;20048;-62
2021/03/07 07:22:08;;;;;;;114.30;73.80;;;128.30;1484.80;;;;;;5032281;28;20022;-62
2021/03/07 07:24:34;;;;;;;143.57;93.63;;;128.50;1459.20;;;;;;5032100;28;20033;-61
2021/03/07 07:27:00;;;;;;;106.97;68.57;;;128.80;1433.60;;;;;;5031650;28;20032;-65
2021/03/07 07:29:26;;;;;;;98.65;58.75;;;153.60;1433.60;;;;;;5032115;28;20029;-65
2021/03/07 07:32:25;;;;;;;87.68;54.50;;;153.80;1408.00;;;;;;5013106;28;20026;-64
2021/03/07 07:35:04;;;;;;;114.97;66.07;;;153.90;1382.40;;;;;;5032080;28;20037;-64
2021/03/07 07:37:52;;;;;;;109.15;73.43;;;154.00;1382.40;;;;;;5031803;28;20017;-63
2021/03/07 07:40:19;;;;;;;90.47;57.63;;;154.10;1356.80;;;;;;5031827;28;20041;-65
2021/03/07 07:42:58;;;;;;;85.72;57.30;;;154.20;1356.80;;;;;;5031912;28;20072;-65
2021/03/07 07:45:24;;;;;;;82.70;55.22;;;154.20;1331.20;;;;;;5032088;28;20030;-66
2021/03/07 07:47:53;;;;;;;93.10;58.72;;;154.00;1382.40;;;;;;5031702;28;20025;-64
2021/03/07 07:50:31;;;;;;;103.60;65.85;;;179.20;1305.60;;;;;;5032091;28;20026;-62
2021/03/07 07:53:01;;;;;;;84.10;53.15;;;179.20;1280.00;;;;;;5031409;28;20030;-61
2021/03/07 07:55:50;;;;;;;86.90;57.42;;;179.20;1280.00;;;;;;5031875;28;20395;-65
2021/03/07 07:58:48;;;;;;;89.75;54.50;;;179.20;1280.00;;;;;;5031247;28;20468;-62
2021/03/07 08:01:15;;;;;;;97.13;59.95;;;179.20;1280.00;;;;;;4936039;29;20039;-65
2021/03/07 08:03:44;;;;;;;68.88;46.70;;;179.40;1305.60;;;;;;4932496;29;20051;-62
2021/03/07 08:06:28;;;;;;;72.68;48.42;;;179.60;1254.40;;;;;;4932246;29;20039;-62
2021/03/07 08:08:54;;;;;;;77.75;51.72;;;179.80;1254.40;;;;;;4932458;29;20031;-62
2021/03/07 08:11:22;;;;;;;72.38;48.95;;;179.90;1228.80;;;;;;4934923;29;20039;-61
2021/03/07 08:13:49;;;;;;;67.45;44.58;;;204.80;1228.80;;;;;;4920018;29;20055;-66
2021/03/07 08:16:42;;;;;;;193.82;105.22;;;205.10;1228.80;;;;;;4935803;28;20035;-63
2021/03/07 08:19:13;;;;;;;79.97;53.60;;;205.30;1152.00;;;;;;4935869;29;20032;-63
2021/03/07 08:21:56;;;;;;;75.13;51.87;;;205.40;1177.60;;;;;;4935893;29;20151;-63
2021/03/07 08:24:22;;;;;;;87.45;57.15;;;205.60;1203.20;;;;;;4935683;29;20145;-65
2021/03/07 08:26:48;;;;;;;90.60;62.30;;;205.70;1177.60;;;;;;4936062;29;20027;-65
2021/03/07 08:29:45;;;;;;;84.57;58.08;;;230.40;1177.60;;;;;;4935686;29;20080;-63
2021/03/07 08:32:31;;;;;;;94.88;60.80;;;230.60;1152.00;;;;;;4936295;29;20039;-64
2021/03/07 08:35:00;;;;;;;77.97;51.72;;;230.90;1126.40;;;;;;4945668;29;20042;-66
2021/03/07 08:37:27;;;;;;;84.40;56.08;;;231.10;1126.40;;;;;;4997555;28;20040;-64
2021/03/07 08:40:26;;;;;;;81.38;53.88;;;231.20;1126.40;;;;;;5034800;28;20120;-66
2021/03/07 08:42:52;;;;;;;82.40;54.10;;;231.20;1100.80;;;;;;5034568;28;20060;-64
2021/03/07 08:45:20;;;;;;;74.05;47.70;;;231.30;1075.20;;;;;;5034569;28;20022;-62
2021/03/07 08:47:57;;;;;;;44.30;29.13;;;256.10;1075.20;;;;;;5034379;28;20021;-62
2021/03/07 08:50:24;;;;;;;50.90;35.70;;;256.40;972.80;;;;;;5034662;28;20025;-62
2021/03/07 08:52:50;;;;;;;65.35;46.10;;;256.50;972.80;;;;;;5034300;28;20025;-62
2021/03/07 08:55:16;;;;;;;60.58;42.92;;;256.80;998.40;;;;;;5034365;28;20149;-66
2021/03/07 08:57:47;;;;;;;54.75;37.30;;;256.80;972.80;;;;;;5034301;28;20033;-63
2021/03/07 09:00:14;;;;;;;52.15;36.80;;;256.60;998.40;;;;;;5034388;28;20108;-63
2021/03/07 09:02:40;;;;;;;43.45;30.17;;;256.90;947.20;;;;;;5007379;28;20048;-65
2021/03/07 09:05:09;;;;;;;41.70;28.70;;;281.90;947.20;;;;;;5034189;28;20105;-65
2021/03/07 09:07:35;;;;;;;37.10;26.50;;;282.00;921.60;;;;;;5029617;28;20075;-66
2021/03/07 09:10:00;;;;;;;51.70;37.05;;;282.00;921.60;;;;;;5034051;28;20033;-67
2021/03/07 09:12:26;;;;;;;42.47;28.45;;;282.20;870.40;;;;;;5034149;28;20472;-66
2021/03/07 09:14:52;;;;;;;28.33;20.55;;;282.30;896.00;;;;;;5034153;28;20444;-64
2021/03/07 09:17:21;;;;;;;25.70;18.50;;;307.50;896.00;;;;;;5034050;28;20053;-65
2021/03/07 09:19:47;;;;;;;29.90;19.67;;;307.80;844.80;;;;;;5033874;28;20036;-62
2021/03/07 09:22:22;;;;;;;24.65;18.48;;;307.60;819.20;;;;;;5032835;28;20399;-66
2021/03/07 09:25:09;;;;;;;25.10;17.08;;;307.30;819.20;;;;;;5033822;28;20036;-66
2021/03/07 09:27:39;;;;;;;20.38;14.15;;;308.10;793.60;;;;;;5027386;28;20418;-63
2021/03/07 09:30:12;;;;;;;20.13;12.60;;;307.90;768.00;;;;;;5029351;28;20437;-65
2021/03/07 09:32:41;;;;;;;38.65;21.98;;;333.20;742.40;;;;;;5033674;28;20105;-63
2021/03/07 09:35:16;;;;;;;46.80;26.85;;;435.90;512.00;;;;;;5015887;28;20041;-65
2021/03/07 09:37:42;;;;;;;10.75;9.30;;;563.50;409.60;;;;;;5033464;28;20072;-68
2021/03/07 09:40:12;;;;;;;10.80;9.32;;;640.20;332.80;;;;;;5033729;28;20124;-64
2021/03/07 09:42:42;;;;;;;19.65;14.57;;;691.20;307.20;;;;;;5033611;28;20109;-63
2021/03/07 09:45:09;;;;;;;34.75;28.00;;;;;;;;;;5033873;28;20104;-65
2021/03/07 09:47:35;;;;;;;24.33;11.98;;;793.70;230.40;;;;;;5033101;28;20029;-61
2021/03/07 09:50:02;;;;;;;22.65;12.73;;;794.50;256.00;;;;;;5033505;28;20053;-66
2021/03/07 09:52:28;;;;;;;16.63;12.00;;;819.80;230.40;;;;;;5033669;28;20053;-61
2021/03/07 09:54:55;;;;;;;28.67;25.77;;;845.40;256.00;;;;;;5032981;28;20458;-64
2021/03/07 09:57:21;;;;;;;21.42;16.85;;;845.00;256.00;;;;;;5033221;28;20384;-61
2021/03/07 09:59:52;;;;;;;15.55;13.82;;;845.70;256.00;;;;;;5033114;28;20052;-64
2021/03/07 10:02:18;;;;;;;21.60;19.30;;;870.70;256.00;;;;;;5033365;28;20036;-64
2021/03/07 10:04:50;;;;;;;35.40;27.42;;;871.00;256.00;;;;;;5014487;28;20112;-68
2021/03/07 10:07:18;;;;;;;8.75;7.85;;;870.90;256.00;;;;;;5033011;28;20044;-62
2021/03/07 10:10:03;;;;;;;12.68;11.38;;;871.00;256.00;;;;;;5033315;28;20053;-65
2021/03/07 10:12:41;;;;;;;11.10;10.00;;;871.30;256.00;;;;;;5025204;28;20026;-66
2021/03/07 10:15:08;;;;;;;24.00;20.35;;;896.00;256.00;;;;;;5031395;28;20044;-64
2021/03/07 10:17:39;;;;;;;33.70;27.50;;;896.40;256.00;;;;;;5033030;28;20072;-64
2021/03/07 10:20:06;;;;;;;;;;;922.40;281.60;;;;;;5033250;28;20025;-67
2021/03/07 10:22:39;;;;;;;13.00;11.50;;;922.40;281.60;;;;;;5032997;28;20000;-61
2021/03/07 10:25:07;;;;;;;17.63;13.50;;;921.90;281.60;;;;;;5032734;28;20029;-67
2021/03/07 10:27:33;;;;;;;13.30;11.90;;;896.60;256.00;;;;;;5032344;28;20057;-65
2021/03/07 10:29:59;;;;;;;13.20;10.70;;;896.60;256.00;;;;;;5026870;28;20489;-63
2021/03/07 10:32:25;;;;;;;9.43;8.02;;;896.30;256.00;;;;;;5032260;28;20029;-64
2021/03/07 10:34:52;;;;;;;23.92;20.90;;;871.00;256.00;;;;;;5014701;28;20507;-63
2021/03/07 10:37:40;;;;;;;13.88;11.30;;;896.50;256.00;;;;;;5032554;28;20049;-64
2021/03/07 10:40:11;;;;;;;7.70;6.97;;;871.10;256.00;;;;;;5031900;28;20065;-66
2021/03/07 10:42:42;;;;;;;8.15;7.35;;;896.90;256.00;;;;;;5032422;28;20388;-64
2021/03/07 10:45:22;;;;;;;11.32;9.20;;;922.20;281.60;;;;;;5032540;28;20026;-67
2021/03/07 10:48:11;;;;;;;16.27;12.00;;;921.80;281.60;;;;;;5032193;28;20037;-69
2021/03/07 10:50:48;;;;;;;11.32;10.13;;;922.50;281.60;;;;;;5032126;28;20033;-66
2021/03/07 10:53:16;;;;;;;15.98;14.38;;;973.00;307.20;;;;;;5032178;28;20043;-66
2021/03/07 10:55:49;;;;;;;15.90;13.90;;;947.50;281.60;;;;;;5032333;28;20037;-67
2021/03/07 10:58:15;;;;;;;13.82;12.18;;;947.20;281.60;;;;;;5031477;28;20017;-68
2021/03/07 11:00:41;;;;;;;25.52;18.95;;;922.10;281.60;;;;;;5032321;28;20021;-66
2021/03/07 11:03:07;;;;;;;14.90;12.80;;;922.20;281.60;;;;;;5032018;28;20487;-66
2021/03/07 11:05:32;;;;;;;13.18;10.68;;;922.10;281.60;;;;;;5032524;28;20033;-67
2021/03/07 11:07:58;;;;;;;15.63;14.00;;;922.30;281.60;;;;;;5032127;28;20423;-62
2021/03/07 11:10:24;;;;;;;18.75;15.73;;;896.00;256.00;;;;;;5032320;28;20072;-68
2021/03/07 11:12:50;;;;;;;13.85;11.93;;;922.00;281.60;;;;;;5031871;28;20037;-64
2021/03/07 11:15:16;;;;;;;12.55;10.77;;;947.50;281.60;;;;;;5032107;28;20013;-64
2021/03/07 11:17:42;;;;;;;9.32;8.23;;;947.30;281.60;;;;;;5032243;28;20025;-66
2021/03/07 11:20:10;;;;;;;14.38;12.23;;;871.00;256.00;;;;;;5031823;28;20033;-65
2021/03/07 11:22:36;;;;;;;10.10;9.10;;;922.40;281.60;;;;;;5032027;28;20029;-66
2021/03/07 11:25:05;;;;;;;13.05;9.25;;;922.00;281.60;;;;;;5031964;28;20475;-64
2021/03/07 11:27:31;;;;;;;27.02;23.40;;;896.80;256.00;;;;;;5031990;28;20387;-64
2021/03/07 11:29:57;;;;;;;20.10;17.63;;;922.00;281.60;;;;;;5031850;28;20033;-68
2021/03/07 11:32:22;;;;;;;31.38;27.98;;;922.50;281.60;;;;;;5031799;28;20014;-69
2021/03/07 11:34:48;;;;;;;49.47;43.45;;;871.00;256.00;;;;;;5031990;28;20068;-69
2021/03/07 11:37:14;;;;;;;15.75;13.25;;;896.90;256.00;;;;;;5031841;28;20479;-67
2021/03/07 11:39:40;;;;;;;11.15;9.93;;;896.70;256.00;;;;;;5031944;28;20486;-63
2021/03/07 11:42:06;;;;;;;14.40;11.88;;;871.00;256.00;;;;;;5032048;28;20021;-63
2021/03/07 11:44:32;;;;;;;16.55;12.70;;;871.10;256.00;;;;;;5032078;28;20022;-67
2021/03/07 11:46:58;;;;;;;18.75;15.05;;;871.30;256.00;;;;;;5035906;28;20018;-63
2021/03/07 11:49:24;;;;;;;11.55;9.57;;;896.20;256.00;;;;;;5035584;28;20044;-64
2021/03/07 11:51:49;;;;;;;10.00;8.63;;;896.90;256.00;;;;;;5035722;28;20036;-66
2021/03/07 11:54:15;;;;;;;17.30;13.32;;;896.40;256.00;;;;;;5035157;28;20641;-61
2021/03/07 11:56:41;;;;;;;16.40;9.68;;;896.40;256.00;;;;;;5035740;28;20502;-62
2021/03/07 11:59:07;;;;;;;25.73;16.75;;;870.70;256.00;;;;;;5035730;28;20024;-64
2021/03/07 12:01:33;;;;;;;19.92;17.92;;;870.60;256.00;;;;;;5035460;28;20388;-67
2021/03/07 12:03:59;;;;;;;33.08;26.10;;;819.70;230.40;;;;;;5035398;28;20024;-65
2021/03/07 12:06:25;;;;;;;21.42;16.63;;;819.60;230.40;;;;;;5035181;28;20108;-64
2021/03/07 12:08:51;;;;;;;10.48;9.38;;;819.50;230.40;;;;;;5035433;28;20021;-63
2021/03/07 12:11:18;;;;;;;12.98;10.18;;;794.50;230.40;;;;;;5031726;28;20033;-65
2021/03/07 12:13:44;;;;;;;27.10;18.52;;;;;;;;;;5035336;28;20013;-62
2021/03/07 12:16:10;;;;;;;21.45;15.63;;;;;;;;;;5035191;28;20087;-62
2021/03/07 12:18:37;;;;;;;49.10;31.67;;;768.80;230.40;;;;;;5035403;28;20384;-64
2021/03/07 12:21:04;;;;;;;21.30;18.92;;;793.80;256.00;;;;;;5035448;28;20077;-62